Crawfordville, Georgia
Current Conditions -  °F | °C
As of 2:15 PM on Friday 24 Oct 2014 (Local Time) from K3J7 Reporting Station
Clear Clear  
Wind Chill: 72°   Ceiling: Unl
Heat Index: 72°   Visibility: 10mi
Dew Point: 46°   Wind: 0mph
Humidity: 41%   Direction: NA
Pressure: 29.99"   Gusts: NA
Location:  33.55°N, 82.9°W
Report Text: K3J7 241815Z AUTO 00000KT 10SM CLR 22/08 A2999 RMK AO2
Loading
Personal Weather Stations






























Interactive Weather Map
Tropical Storm Tracking
New forecast layout! Learn more

10-Day Weather Forecast

Advertisements
Track Severe Weather on mobile